sensor_id;sensor_type;location;lat;lon;timestamp;pressure;altitude;pressure_sealevel;temperature;humidity
19526;BME280;9907;42.676;26.348;2023-05-03T00:00:44;99534.09;;;11.13;53.87
19526;BME280;9907;42.676;26.348;2023-05-03T00:03:09;99537.59;;;10.93;54.53
19526;BME280;9907;42.676;26.348;2023-05-03T00:05:35;99525.84;;;11.05;54.21
19526;BME280;9907;42.676;26.348;2023-05-03T00:08:01;99531.09;;;11.06;55.39
19526;BME280;9907;42.676;26.348;2023-05-03T00:10:27;99531.47;;;11.02;54.92
19526;BME280;9907;42.676;26.348;2023-05-03T00:12:54;99528.72;;;10.92;54.48
19526;BME280;9907;42.676;26.348;2023-05-03T00:15:19;99523.06;;;11.06;54.47
19526;BME280;9907;42.676;26.348;2023-05-03T00:17:45;99519.59;;;10.95;54.89
19526;BME280;9907;42.676;26.348;2023-05-03T00:20:10;99522.53;;;10.92;55.24
19526;BME280;9907;42.676;26.348;2023-05-03T00:22:36;99516.53;;;10.99;54.29
19526;BME280;9907;42.676;26.348;2023-05-03T00:25:01;99510.47;;;10.97;53.91
19526;BME280;9907;42.676;26.348;2023-05-03T00:27:27;99506.16;;;11.06;53.89
19526;BME280;9907;42.676;26.348;2023-05-03T00:29:53;99499.22;;;11.14;54.46
19526;BME280;9907;42.676;26.348;2023-05-03T00:32:19;99509.56;;;11.08;54.41
19526;BME280;9907;42.676;26.348;2023-05-03T00:34:51;99504.56;;;11.14;55.78
19526;BME280;9907;42.676;26.348;2023-05-03T00:37:17;99514.50;;;11.12;55.17
19526;BME280;9907;42.676;26.348;2023-05-03T00:39:42;99508.94;;;11.15;55.83
19526;BME280;9907;42.676;26.348;2023-05-03T00:42:08;99498.69;;;11.00;55.84
19526;BME280;9907;42.676;26.348;2023-05-03T00:44:33;99510.28;;;10.89;56.76
19526;BME280;9907;42.676;26.348;2023-05-03T00:46:59;99511.03;;;10.80;56.69
19526;BME280;9907;42.676;26.348;2023-05-03T00:49:25;99512.66;;;10.71;56.89
19526;BME280;9907;42.676;26.348;2023-05-03T00:51:52;99514.50;;;10.60;58.11
19526;BME280;9907;42.676;26.348;2023-05-03T00:54:19;99511.28;;;10.45;58.46
19526;BME280;9907;42.676;26.348;2023-05-03T00:56:45;99519.25;;;10.56;57.72
19526;BME280;9907;42.676;26.348;2023-05-03T00:59:11;99523.50;;;10.59;57.11
19526;BME280;9907;42.676;26.348;2023-05-03T01:01:37;99516.63;;;10.45;58.59
19526;BME280;9907;42.676;26.348;2023-05-03T01:04:04;99530.41;;;10.50;57.35
19526;BME280;9907;42.676;26.348;2023-05-03T01:06:39;99521.53;;;10.61;58.31
19526;BME280;9907;42.676;26.348;2023-05-03T01:09:22;99516.69;;;10.87;57.86
19526;BME280;9907;42.676;26.348;2023-05-03T01:12:03;99526.63;;;10.96;56.93
19526;BME280;9907;42.676;26.348;2023-05-03T01:14:45;99509.94;;;10.83;57.59
19526;BME280;9907;42.676;26.348;2023-05-03T01:17:13;99512.44;;;10.63;57.23
19526;BME280;9907;42.676;26.348;2023-05-03T01:19:49;99511.22;;;10.67;57.13
19526;BME280;9907;42.676;26.348;2023-05-03T01:25:14;99494.69;;;10.62;58.63
19526;BME280;9907;42.676;26.348;2023-05-03T01:27:41;99494.91;;;10.70;57.84
19526;BME280;9907;42.676;26.348;2023-05-03T01:30:08;99481.66;;;10.69;59.14
19526;BME280;9907;42.676;26.348;2023-05-03T01:38:20;99469.09;;;10.60;59.25
19526;BME280;9907;42.676;26.348;2023-05-03T01:40:59;99471.63;;;10.61;60.47
19526;BME280;9907;42.676;26.348;2023-05-03T01:43:27;99475.88;;;10.64;60.26
19526;BME280;9907;42.676;26.348;2023-05-03T01:45:56;99473.28;;;10.73;60.56
19526;BME280;9907;42.676;26.348;2023-05-03T01:48:21;99468.91;;;10.72;59.54
19526;BME280;9907;42.676;26.348;2023-05-03T01:50:47;99470.59;;;10.73;59.59
19526;BME280;9907;42.676;26.348;2023-05-03T01:53:12;99480.06;;;10.78;60.21
19526;BME280;9907;42.676;26.348;2023-05-03T01:55:38;99486.84;;;10.82;60.29
19526;BME280;9907;42.676;26.348;2023-05-03T01:58:03;99480.91;;;10.78;59.97
19526;BME280;9907;42.676;26.348;2023-05-03T02:00:28;99498.50;;;10.81;59.68
19526;BME280;9907;42.676;26.348;2023-05-03T02:02:54;99500.59;;;10.77;59.44
19526;BME280;9907;42.676;26.348;2023-05-03T02:05:20;99492.78;;;10.85;59.35
19526;BME280;9907;42.676;26.348;2023-05-03T02:07:46;99500.91;;;10.84;59.88
19526;BME280;9907;42.676;26.348;2023-05-03T02:10:11;99498.88;;;10.76;59.46
19526;BME280;9907;42.676;26.348;2023-05-03T02:12:42;99493.94;;;10.71;59.67
19526;BME280;9907;42.676;26.348;2023-05-03T02:15:08;99491.34;;;10.81;60.36
19526;BME280;9907;42.676;26.348;2023-05-03T02:17:34;99497.81;;;10.79;60.61
19526;BME280;9907;42.676;26.348;2023-05-03T02:20:00;99488.09;;;10.78;60.44
19526;BME280;9907;42.676;26.348;2023-05-03T02:22:25;99480.44;;;10.73;61.21
19526;BME280;9907;42.676;26.348;2023-05-03T02:24:51;99490.91;;;10.65;61.57
19526;BME280;9907;42.676;26.348;2023-05-03T02:27:16;99484.97;;;10.61;61.60
19526;BME280;9907;42.676;26.348;2023-05-03T02:29:42;99489.03;;;10.56;61.16
19526;BME280;9907;42.676;26.348;2023-05-03T02:32:08;99494.00;;;10.60;60.92
19526;BME280;9907;42.676;26.348;2023-05-03T02:34:33;99502.25;;;10.46;61.96
19526;BME280;9907;42.676;26.348;2023-05-03T02:36:59;99501.28;;;10.47;61.94
19526;BME280;9907;42.676;26.348;2023-05-03T02:39:24;99503.69;;;10.61;61.28
19526;BME280;9907;42.676;26.348;2023-05-03T02:41:50;99508.72;;;10.75;61.78
19526;BME280;9907;42.676;26.348;2023-05-03T02:44:15;99495.50;;;10.74;60.47
19526;BME280;9907;42.676;26.348;2023-05-03T02:46:41;99494.72;;;10.51;61.58
19526;BME280;9907;42.676;26.348;2023-05-03T02:49:07;99498.38;;;10.50;62.73
19526;BME280;9907;42.676;26.348;2023-05-03T02:51:32;99492.75;;;10.53;61.89
19526;BME280;9907;42.676;26.348;2023-05-03T02:53:58;99496.19;;;10.55;61.73
19526;BME280;9907;42.676;26.348;2023-05-03T02:56:24;99498.47;;;10.60;60.99
19526;BME280;9907;42.676;26.348;2023-05-03T02:58:53;99497.09;;;10.65;61.28
19526;BME280;9907;42.676;26.348;2023-05-03T03:01:18;99498.03;;;10.75;61.63
19526;BME280;9907;42.676;26.348;2023-05-03T03:03:44;99494.88;;;10.82;61.17
19526;BME280;9907;42.676;26.348;2023-05-03T03:06:10;99500.22;;;10.82;61.01
19526;BME280;9907;42.676;26.348;2023-05-03T03:08:35;99492.31;;;10.80;61.47
19526;BME280;9907;42.676;26.348;2023-05-03T03:11:01;99502.16;;;10.80;61.72
19526;BME280;9907;42.676;26.348;2023-05-03T03:13:28;99504.22;;;10.76;61.57
19526;BME280;9907;42.676;26.348;2023-05-03T03:15:53;99511.81;;;10.71;62.54
19526;BME280;9907;42.676;26.348;2023-05-03T03:18:18;99507.66;;;10.78;62.44
19526;BME280;9907;42.676;26.348;2023-05-03T03:20:44;99498.03;;;10.75;62.80
19526;BME280;9907;42.676;26.348;2023-05-03T03:23:09;99500.34;;;10.80;62.55
19526;BME280;9907;42.676;26.348;2023-05-03T03:25:35;99502.41;;;10.77;62.39
19526;BME280;9907;42.676;26.348;2023-05-03T03:28:01;99509.94;;;10.83;62.54
19526;BME280;9907;42.676;26.348;2023-05-03T03:30:26;99502.75;;;10.83;62.08
19526;BME280;9907;42.676;26.348;2023-05-03T03:32:52;99503.47;;;10.85;62.35
19526;BME280;9907;42.676;26.348;2023-05-03T03:35:18;99508.44;;;10.90;62.11
19526;BME280;9907;42.676;26.348;2023-05-03T03:37:44;99503.94;;;10.90;63.04
19526;BME280;9907;42.676;26.348;2023-05-03T03:40:09;99516.31;;;10.91;61.91
19526;BME280;9907;42.676;26.348;2023-05-03T03:42:35;99507.59;;;10.89;62.56
19526;BME280;9907;42.676;26.348;2023-05-03T03:45:01;99492.84;;;10.95;62.46
19526;BME280;9907;42.676;26.348;2023-05-03T03:47:26;99497.34;;;10.94;62.98
19526;BME280;9907;42.676;26.348;2023-05-03T03:49:52;99503.53;;;10.95;63.28
19526;BME280;9907;42.676;26.348;2023-05-03T03:52:17;99493.84;;;10.94;62.88
19526;BME280;9907;42.676;26.348;2023-05-03T03:54:43;99500.63;;;10.98;62.83
19526;BME280;9907;42.676;26.348;2023-05-03T03:57:08;99494.88;;;11.02;63.56
19526;BME280;9907;42.676;26.348;2023-05-03T03:59:34;99500.13;;;11.04;63.74
19526;BME280;9907;42.676;26.348;2023-05-03T04:01:59;99499.13;;;11.05;63.64
19526;BME280;9907;42.676;26.348;2023-05-03T04:04:25;99497.19;;;11.07;63.83
19526;BME280;9907;42.676;26.348;2023-05-03T04:06:50;99503.16;;;11.20;64.25
19526;BME280;9907;42.676;26.348;2023-05-03T04:09:16;99495.63;;;11.25;64.69
19526;BME280;9907;42.676;26.348;2023-05-03T04:11:42;99511.13;;;11.31;64.44
19526;BME280;9907;42.676;26.348;2023-05-03T04:14:07;99508.06;;;11.36;64.76
19526;BME280;9907;42.676;26.348;2023-05-03T04:16:33;99510.47;;;11.39;63.91
19526;BME280;9907;42.676;26.348;2023-05-03T04:18:59;99516.69;;;11.39;65.58
19526;BME280;9907;42.676;26.348;2023-05-03T04:21:24;99519.25;;;11.41;65.25
19526;BME280;9907;42.676;26.348;2023-05-03T04:23:50;99532.34;;;11.44;65.11
19526;BME280;9907;42.676;26.348;2023-05-03T04:26:15;99525.75;;;11.48;65.01
19526;BME280;9907;42.676;26.348;2023-05-03T04:28:41;99532.94;;;11.47;65.73
19526;BME280;9907;42.676;26.348;2023-05-03T04:31:07;99525.88;;;11.46;66.32
19526;BME280;9907;42.676;26.348;2023-05-03T04:33:32;99538.75;;;11.52;64.82
19526;BME280;9907;42.676;26.348;2023-05-03T04:35:58;99542.13;;;11.54;64.03
19526;BME280;9907;42.676;26.348;2023-05-03T04:38:23;99554.66;;;11.54;63.85
19526;BME280;9907;42.676;26.348;2023-05-03T04:40:49;99541.59;;;11.60;64.23
19526;BME280;9907;42.676;26.348;2023-05-03T04:43:14;99546.94;;;11.60;65.93
19526;BME280;9907;42.676;26.348;2023-05-03T04:45:40;99548.66;;;11.61;65.29
19526;BME280;9907;42.676;26.348;2023-05-03T04:48:06;99539.09;;;11.68;64.17
19526;BME280;9907;42.676;26.348;2023-05-03T04:50:32;99538.63;;;11.75;62.96
19526;BME280;9907;42.676;26.348;2023-05-03T04:52:58;99535.81;;;11.76;64.03
19526;BME280;9907;42.676;26.348;2023-05-03T04:55:24;99546.13;;;11.81;64.62
19526;BME280;9907;42.676;26.348;2023-05-03T04:57:49;99558.25;;;11.85;63.71
19526;BME280;9907;42.676;26.348;2023-05-03T05:00:15;99547.00;;;11.91;63.09
19526;BME280;9907;42.676;26.348;2023-05-03T05:02:41;99533.94;;;11.97;63.94
19526;BME280;9907;42.676;26.348;2023-05-03T05:05:07;99524.97;;;12.08;63.32
19526;BME280;9907;42.676;26.348;2023-05-03T05:07:33;99537.13;;;12.12;66.13
19526;BME280;9907;42.676;26.348;2023-05-03T05:09:59;99540.75;;;12.11;65.86
19526;BME280;9907;42.676;26.348;2023-05-03T05:12:25;99531.59;;;12.13;63.69
19526;BME280;9907;42.676;26.348;2023-05-03T05:14:51;99518.25;;;12.23;61.98
19526;BME280;9907;42.676;26.348;2023-05-03T05:17:16;99520.22;;;12.31;62.00
19526;BME280;9907;42.676;26.348;2023-05-03T05:19:42;99521.53;;;12.36;61.10
19526;BME280;9907;42.676;26.348;2023-05-03T05:22:07;99550.16;;;12.36;64.63
19526;BME280;9907;42.676;26.348;2023-05-03T05:24:33;99555.63;;;12.34;65.08
19526;BME280;9907;42.676;26.348;2023-05-03T05:26:58;99557.78;;;12.40;62.05
19526;BME280;9907;42.676;26.348;2023-05-03T05:29:24;99561.88;;;12.44;62.40
19526;BME280;9907;42.676;26.348;2023-05-03T05:31:49;99576.84;;;12.47;66.12
19526;BME280;9907;42.676;26.348;2023-05-03T05:34:16;99580.81;;;12.52;63.21
19526;BME280;9907;42.676;26.348;2023-05-03T05:36:41;99575.19;;;12.55;62.08
19526;BME280;9907;42.676;26.348;2023-05-03T05:39:07;99575.75;;;12.59;59.96
19526;BME280;9907;42.676;26.348;2023-05-03T05:41:32;99583.97;;;12.67;57.41
19526;BME280;9907;42.676;26.348;2023-05-03T05:43:58;99593.16;;;12.74;60.75
19526;BME280;9907;42.676;26.348;2023-05-03T05:46:24;99593.44;;;12.81;59.08
19526;BME280;9907;42.676;26.348;2023-05-03T05:48:50;99605.56;;;12.85;59.56
19526;BME280;9907;42.676;26.348;2023-05-03T05:51:16;99620.53;;;12.87;62.00
19526;BME280;9907;42.676;26.348;2023-05-03T05:53:42;99610.66;;;12.88;59.57
19526;BME280;9907;42.676;26.348;2023-05-03T05:56:07;99611.50;;;12.98;56.99
19526;BME280;9907;42.676;26.348;2023-05-03T05:58:33;99619.84;;;13.04;57.05
19526;BME280;9907;42.676;26.348;2023-05-03T06:00:59;99630.31;;;13.07;59.38
19526;BME280;9907;42.676;26.348;2023-05-03T06:03:29;99628.50;;;13.08;58.13
19526;BME280;9907;42.676;26.348;2023-05-03T06:05:55;99631.50;;;13.14;57.46
19526;BME280;9907;42.676;26.348;2023-05-03T06:08:21;99639.38;;;13.16;58.19
19526;BME280;9907;42.676;26.348;2023-05-03T06:10:46;99644.22;;;13.22;57.04
19526;BME280;9907;42.676;26.348;2023-05-03T06:13:12;99644.22;;;13.32;56.35
19526;BME280;9907;42.676;26.348;2023-05-03T06:15:39;99641.09;;;13.36;56.24
19526;BME280;9907;42.676;26.348;2023-05-03T06:18:05;99633.22;;;13.44;56.72
19526;BME280;9907;42.676;26.348;2023-05-03T06:20:30;99639.72;;;13.51;56.64
19526;BME280;9907;42.676;26.348;2023-05-03T06:22:56;99643.94;;;13.54;57.27
19526;BME280;9907;42.676;26.348;2023-05-03T06:25:21;99642.53;;;13.59;56.08
19526;BME280;9907;42.676;26.348;2023-05-03T06:27:47;99645.31;;;13.68;55.81
19526;BME280;9907;42.676;26.348;2023-05-03T06:30:14;99648.75;;;13.70;55.53
19526;BME280;9907;42.676;26.348;2023-05-03T06:32:40;99648.44;;;13.73;56.59
19526;BME280;9907;42.676;26.348;2023-05-03T06:35:06;99641.66;;;13.78;55.98
19526;BME280;9907;42.676;26.348;2023-05-03T06:37:33;99644.75;;;13.83;55.15
19526;BME280;9907;42.676;26.348;2023-05-03T06:39:59;99641.66;;;13.88;55.65
19526;BME280;9907;42.676;26.348;2023-05-03T06:42:24;99640.09;;;13.85;55.80
19526;BME280;9907;42.676;26.348;2023-05-03T06:44:50;99631.75;;;13.88;55.58
19526;BME280;9907;42.676;26.348;2023-05-03T06:47:15;99637.09;;;13.98;55.99
19526;BME280;9907;42.676;26.348;2023-05-03T06:49:41;99627.88;;;14.10;55.79
19526;BME280;9907;42.676;26.348;2023-05-03T06:52:06;99629.41;;;14.22;54.00
19526;BME280;9907;42.676;26.348;2023-05-03T06:54:32;99628.81;;;14.38;55.16
19526;BME280;9907;42.676;26.348;2023-05-03T06:56:57;99639.09;;;14.52;53.95
19526;BME280;9907;42.676;26.348;2023-05-03T06:59:23;99632.06;;;14.69;54.10
19526;BME280;9907;42.676;26.348;2023-05-03T07:01:48;99629.09;;;14.72;53.35
19526;BME280;9907;42.676;26.348;2023-05-03T07:04:15;99628.00;;;14.65;53.95
19526;BME280;9907;42.676;26.348;2023-05-03T07:06:40;99630.34;;;14.77;53.66
19526;BME280;9907;42.676;26.348;2023-05-03T07:09:06;99618.75;;;14.77;53.39
19526;BME280;9907;42.676;26.348;2023-05-03T07:11:31;99621.63;;;14.66;53.75
19526;BME280;9907;42.676;26.348;2023-05-03T07:13:58;99630.09;;;14.71;53.83
19526;BME280;9907;42.676;26.348;2023-05-03T07:16:24;99633.13;;;14.85;54.27
19526;BME280;9907;42.676;26.348;2023-05-03T07:18:49;99622.63;;;14.92;54.36
19526;BME280;9907;42.676;26.348;2023-05-03T07:21:15;99624.06;;;15.04;55.54
19526;BME280;9907;42.676;26.348;2023-05-03T07:23:40;99618.03;;;15.37;53.57
19526;BME280;9907;42.676;26.348;2023-05-03T07:26:06;99614.53;;;15.54;52.18
19526;BME280;9907;42.676;26.348;2023-05-03T07:28:32;99625.75;;;15.68;51.93
19526;BME280;9907;42.676;26.348;2023-05-03T07:30:58;99618.00;;;15.90;52.44
19526;BME280;9907;42.676;26.348;2023-05-03T07:33:24;99611.03;;;16.31;50.60
19526;BME280;9907;42.676;26.348;2023-05-03T07:35:49;99611.72;;;16.59;49.81
19526;BME280;9907;42.676;26.348;2023-05-03T07:38:15;99599.69;;;16.53;50.03
19526;BME280;9907;42.676;26.348;2023-05-03T07:40:41;99598.00;;;16.86;49.55
19526;BME280;9907;42.676;26.348;2023-05-03T07:43:07;99617.06;;;16.85;48.19
19526;BME280;9907;42.676;26.348;2023-05-03T07:45:37;99624.72;;;17.06;48.68
19526;BME280;9907;42.676;26.348;2023-05-03T07:48:03;99609.38;;;17.22;48.81
19526;BME280;9907;42.676;26.348;2023-05-03T07:50:30;99608.94;;;17.51;49.37
19526;BME280;9907;42.676;26.348;2023-05-03T07:52:56;99620.84;;;17.16;47.58
19526;BME280;9907;42.676;26.348;2023-05-03T07:55:22;99608.63;;;16.88;48.15
19526;BME280;9907;42.676;26.348;2023-05-03T07:57:49;99610.72;;;17.10;49.05
19526;BME280;9907;42.676;26.348;2023-05-03T08:00:16;99588.75;;;16.97;48.67
19526;BME280;9907;42.676;26.348;2023-05-03T08:02:42;99589.13;;;17.10;48.00
19526;BME280;9907;42.676;26.348;2023-05-03T08:05:09;99592.00;;;17.17;47.91
19526;BME280;9907;42.676;26.348;2023-05-03T08:07:35;99585.28;;;17.21;48.89
19526;BME280;9907;42.676;26.348;2023-05-03T08:10:01;99579.34;;;17.33;48.13
19526;BME280;9907;42.676;26.348;2023-05-03T08:12:27;99578.66;;;16.99;48.27
19526;BME280;9907;42.676;26.348;2023-05-03T08:14:53;99576.59;;;16.93;50.00
19526;BME280;9907;42.676;26.348;2023-05-03T08:17:19;99566.19;;;17.14;49.92
19526;BME280;9907;42.676;26.348;2023-05-03T08:19:45;99577.31;;;17.19;48.35
19526;BME280;9907;42.676;26.348;2023-05-03T08:22:11;99584.38;;;17.04;47.34
19526;BME280;9907;42.676;26.348;2023-05-03T08:24:38;99569.91;;;17.13;49.34
19526;BME280;9907;42.676;26.348;2023-05-03T08:27:04;99571.06;;;17.19;47.97
19526;BME280;9907;42.676;26.348;2023-05-03T08:29:30;99580.38;;;17.24;47.18
19526;BME280;9907;42.676;26.348;2023-05-03T08:31:56;99593.50;;;17.03;46.27
19526;BME280;9907;42.676;26.348;2023-05-03T08:34:23;99552.03;;;17.20;48.00
19526;BME280;9907;42.676;26.348;2023-05-03T08:36:49;99562.28;;;17.00;45.84
19526;BME280;9907;42.676;26.348;2023-05-03T08:39:15;99547.63;;;17.11;46.46
19526;BME280;9907;42.676;26.348;2023-05-03T08:41:41;99532.13;;;17.53;45.07
19526;BME280;9907;42.676;26.348;2023-05-03T08:44:07;99528.41;;;17.63;46.19
19526;BME280;9907;42.676;26.348;2023-05-03T08:46:35;99546.81;;;17.83;45.85
19526;BME280;9907;42.676;26.348;2023-05-03T08:49:03;99523.00;;;17.71;44.14
19526;BME280;9907;42.676;26.348;2023-05-03T08:51:28;99504.09;;;17.46;44.26
19526;BME280;9907;42.676;26.348;2023-05-03T08:53:54;99506.97;;;17.45;46.44
19526;BME280;9907;42.676;26.348;2023-05-03T08:56:27;99496.50;;;17.34;48.00
19526;BME280;9907;42.676;26.348;2023-05-03T08:58:53;99484.34;;;17.38;44.66
19526;BME280;9907;42.676;26.348;2023-05-03T09:01:19;99487.75;;;17.24;46.89
19526;BME280;9907;42.676;26.348;2023-05-03T09:03:49;99490.28;;;17.09;47.00
19526;BME280;9907;42.676;26.348;2023-05-03T09:06:22;99468.84;;;17.16;46.13
19526;BME280;9907;42.676;26.348;2023-05-03T09:08:51;99471.34;;;17.41;45.66
19526;BME280;9907;42.676;26.348;2023-05-03T09:11:26;99450.03;;;17.87;45.75
19526;BME280;9907;42.676;26.348;2023-05-03T09:13:52;99449.28;;;18.01;44.92
19526;BME280;9907;42.676;26.348;2023-05-03T09:16:26;99442.28;;;18.15;45.50
19526;BME280;9907;42.676;26.348;2023-05-03T09:19:05;99440.94;;;18.58;45.08
19526;BME280;9907;42.676;26.348;2023-05-03T09:21:34;99444.00;;;18.46;43.67
19526;BME280;9907;42.676;26.348;2023-05-03T09:24:00;99431.75;;;18.36;42.71
19526;BME280;9907;42.676;26.348;2023-05-03T09:26:34;99438.31;;;18.33;42.75
19526;BME280;9907;42.676;26.348;2023-05-03T09:29:01;99436.50;;;18.26;43.89
19526;BME280;9907;42.676;26.348;2023-05-03T09:31:29;99441.03;;;18.03;45.42
19526;BME280;9907;42.676;26.348;2023-05-03T09:33:56;99465.13;;;18.12;44.79
19526;BME280;9907;42.676;26.348;2023-05-03T09:36:22;99474.97;;;18.05;45.17
19526;BME280;9907;42.676;26.348;2023-05-03T09:38:48;99453.19;;;17.98;47.48
19526;BME280;9907;42.676;26.348;2023-05-03T09:41:14;99453.34;;;17.97;46.56
19526;BME280;9907;42.676;26.348;2023-05-03T09:43:51;99456.94;;;17.89;47.76
19526;BME280;9907;42.676;26.348;2023-05-03T09:46:17;99441.59;;;17.74;47.22
19526;BME280;9907;42.676;26.348;2023-05-03T09:48:43;99430.47;;;17.77;43.65
19526;BME280;9907;42.676;26.348;2023-05-03T09:51:09;99433.19;;;17.69;43.59
19526;BME280;9907;42.676;26.348;2023-05-03T09:53:37;99431.16;;;17.71;43.82
19526;BME280;9907;42.676;26.348;2023-05-03T09:56:04;99438.09;;;17.65;44.75
19526;BME280;9907;42.676;26.348;2023-05-03T09:58:34;99432.50;;;17.75;46.05
19526;BME280;9907;42.676;26.348;2023-05-03T10:01:00;99433.38;;;17.59;46.49
19526;BME280;9907;42.676;26.348;2023-05-03T10:03:42;99454.81;;;17.69;47.00
19526;BME280;9907;42.676;26.348;2023-05-03T10:06:35;99440.13;;;17.63;45.47
19526;BME280;9907;42.676;26.348;2023-05-03T10:09:05;99441.59;;;17.74;45.90
19526;BME280;9907;42.676;26.348;2023-05-03T10:11:36;99448.69;;;17.83;46.16
19526;BME280;9907;42.676;26.348;2023-05-03T10:14:04;99441.94;;;17.71;45.15
19526;BME280;9907;42.676;26.348;2023-05-03T10:16:43;99425.91;;;17.77;45.61
19526;BME280;9907;42.676;26.348;2023-05-03T10:24:23;99433.91;;;18.02;47.29
19526;BME280;9907;42.676;26.348;2023-05-03T10:26:50;99415.84;;;18.02;45.58
19526;BME280;9907;42.676;26.348;2023-05-03T10:29:49;99411.88;;;18.21;44.29
19526;BME280;9907;42.676;26.348;2023-05-03T10:32:31;99409.13;;;18.29;44.52
19526;BME280;9907;42.676;26.348;2023-05-03T10:35:16;99414.78;;;18.42;41.99
19526;BME280;9907;42.676;26.348;2023-05-03T10:37:42;99430.66;;;18.45;41.38
19526;BME280;9907;42.676;26.348;2023-05-03T10:40:13;99429.16;;;18.42;42.21
19526;BME280;9907;42.676;26.348;2023-05-03T10:42:50;99443.44;;;18.28;42.77
19526;BME280;9907;42.676;26.348;2023-05-03T10:45:27;99477.63;;;18.21;45.78
19526;BME280;9907;42.676;26.348;2023-05-03T10:50:40;99476.03;;;17.88;49.42
19526;BME280;9907;42.676;26.348;2023-05-03T10:53:06;99482.97;;;17.74;48.17
19526;BME280;9907;42.676;26.348;2023-05-03T10:55:32;99481.16;;;17.59;48.57
19526;BME280;9907;42.676;26.348;2023-05-03T10:57:59;99482.00;;;17.51;50.67
19526;BME280;9907;42.676;26.348;2023-05-03T11:00:38;99496.84;;;17.55;50.63
19526;BME280;9907;42.676;26.348;2023-05-03T11:03:38;99514.91;;;17.71;49.76
19526;BME280;9907;42.676;26.348;2023-05-03T11:06:07;99508.81;;;17.44;48.03
19526;BME280;9907;42.676;26.348;2023-05-03T11:08:32;99497.53;;;17.17;47.72
19526;BME280;9907;42.676;26.348;2023-05-03T11:11:02;99498.88;;;17.21;47.93
19526;BME280;9907;42.676;26.348;2023-05-03T11:13:36;99503.09;;;17.23;47.42
19526;BME280;9907;42.676;26.348;2023-05-03T11:16:03;99524.19;;;17.20;48.01
19526;BME280;9907;42.676;26.348;2023-05-03T11:18:32;99540.69;;;17.00;46.88
19526;BME280;9907;42.676;26.348;2023-05-03T11:20:57;99515.56;;;17.08;47.54
19526;BME280;9907;42.676;26.348;2023-05-03T11:23:28;99527.53;;;17.06;47.69
19526;BME280;9907;42.676;26.348;2023-05-03T11:25:54;99526.88;;;16.95;48.34
19526;BME280;9907;42.676;26.348;2023-05-03T11:28:22;99554.03;;;17.02;47.88
19526;BME280;9907;42.676;26.348;2023-05-03T11:30:47;99551.16;;;16.95;47.64
19526;BME280;9907;42.676;26.348;2023-05-03T11:33:13;99549.22;;;16.72;46.66
19526;BME280;9907;42.676;26.348;2023-05-03T11:35:38;99547.59;;;16.53;46.29
19526;BME280;9907;42.676;26.348;2023-05-03T11:38:04;99533.59;;;16.49;45.90
19526;BME280;9907;42.676;26.348;2023-05-03T11:40:30;99521.81;;;16.50;46.92
19526;BME280;9907;42.676;26.348;2023-05-03T11:42:59;99545.31;;;16.58;46.99
19526;BME280;9907;42.676;26.348;2023-05-03T11:45:44;99534.19;;;16.61;48.02
19526;BME280;9907;42.676;26.348;2023-05-03T11:48:14;99538.28;;;16.73;47.30
19526;BME280;9907;42.676;26.348;2023-05-03T11:50:44;99541.13;;;16.72;47.18
19526;BME280;9907;42.676;26.348;2023-05-03T11:53:14;99526.31;;;16.76;46.24
19526;BME280;9907;42.676;26.348;2023-05-03T11:55:41;99535.91;;;16.78;45.17
19526;BME280;9907;42.676;26.348;2023-05-03T11:58:27;99526.47;;;16.74;45.56
19526;BME280;9907;42.676;26.348;2023-05-03T12:00:55;99519.72;;;16.70;45.65
19526;BME280;9907;42.676;26.348;2023-05-03T12:03:23;99526.78;;;16.71;45.69
19526;BME280;9907;42.676;26.348;2023-05-03T12:05:50;99530.53;;;16.78;46.25
19526;BME280;9907;42.676;26.348;2023-05-03T12:08:19;99529.16;;;16.74;46.38
19526;BME280;9907;42.676;26.348;2023-05-03T12:10:46;99519.41;;;16.81;46.96
19526;BME280;9907;42.676;26.348;2023-05-03T12:13:12;99514.50;;;16.77;45.36
19526;BME280;9907;42.676;26.348;2023-05-03T12:15:38;99486.34;;;16.71;45.21
19526;BME280;9907;42.676;26.348;2023-05-03T12:18:09;99467.63;;;16.78;45.72
19526;BME280;9907;42.676;26.348;2023-05-03T12:20:36;99466.63;;;16.79;45.97
19526;BME280;9907;42.676;26.348;2023-05-03T12:23:04;99453.13;;;16.79;46.91
19526;BME280;9907;42.676;26.348;2023-05-03T12:25:30;99439.63;;;16.71;46.56
19526;BME280;9907;42.676;26.348;2023-05-03T12:27:59;99417.53;;;16.67;47.18
19526;BME280;9907;42.676;26.348;2023-05-03T12:30:25;99406.09;;;16.73;48.55
19526;BME280;9907;42.676;26.348;2023-05-03T12:32:51;99417.56;;;16.83;46.73
19526;BME280;9907;42.676;26.348;2023-05-03T12:35:18;99442.19;;;16.96;47.38
19526;BME280;9907;42.676;26.348;2023-05-03T12:37:45;99442.38;;;16.95;46.00
19526;BME280;9907;42.676;26.348;2023-05-03T12:40:11;99449.59;;;16.94;45.77
19526;BME280;9907;42.676;26.348;2023-05-03T12:42:38;99454.84;;;16.88;45.26
19526;BME280;9907;42.676;26.348;2023-05-03T12:45:04;99443.34;;;16.78;44.13
19526;BME280;9907;42.676;26.348;2023-05-03T12:47:30;99437.75;;;16.63;45.14
19526;BME280;9907;42.676;26.348;2023-05-03T12:49:55;99437.25;;;16.60;44.45
19526;BME280;9907;42.676;26.348;2023-05-03T12:52:20;99433.50;;;16.52;45.77
19526;BME280;9907;42.676;26.348;2023-05-03T12:54:47;99427.56;;;16.41;46.08
19526;BME280;9907;42.676;26.348;2023-05-03T12:57:13;99434.44;;;16.27;46.86
19526;BME280;9907;42.676;26.348;2023-05-03T12:59:39;99428.91;;;16.29;46.80
19526;BME280;9907;42.676;26.348;2023-05-03T13:02:06;99422.31;;;16.23;47.21
19526;BME280;9907;42.676;26.348;2023-05-03T13:04:32;99408.38;;;16.36;46.67
19526;BME280;9907;42.676;26.348;2023-05-03T13:06:58;99413.91;;;16.34;45.58
19526;BME280;9907;42.676;26.348;2023-05-03T13:09:24;99403.47;;;16.31;45.95
19526;BME280;9907;42.676;26.348;2023-05-03T13:11:49;99380.19;;;16.30;46.38
19526;BME280;9907;42.676;26.348;2023-05-03T13:14:19;99379.72;;;16.35;46.48
19526;BME280;9907;42.676;26.348;2023-05-03T13:16:45;99369.41;;;16.22;47.58